Time;durP1;ratioP1;P1;durP2;ratioP2;P2;SDS_P1;SDS_P2;PMS_P1;PMS_P2;Temp;Humidity;BMP_temperature;BMP_pressure;BME280_temperature;BME280_humidity;BME280_pressure;Samples;Min_cycle;Max_cycle;Signal;HPM_P1;HPM_P2
2023/03/03 00:01:18;;;;;;;58.53;26.57;;;1.60;99.90;;;;;;4989089;28;20201;-76
2023/03/03 00:03:46;;;;;;;67.13;29.20;;;1.60;99.90;;;;;;4990340;28;20311;-76
2023/03/03 00:06:13;;;;;;;55.33;26.20;;;1.60;99.90;;;;;;4973903;28;20252;-76
2023/03/03 00:08:40;;;;;;;51.20;26.77;;;1.60;99.90;;;;;;4989525;28;20205;-76
2023/03/03 00:11:09;;;;;;;53.63;27.23;;;1.50;99.90;;;;;;4991335;28;20284;-76
2023/03/03 00:13:50;;;;;;;51.93;26.50;;;1.50;99.90;;;;;;4990468;28;20237;-78
2023/03/03 00:16:38;;;;;;;61.77;30.40;;;1.50;99.90;;;;;;4998102;28;20308;-76
2023/03/03 00:19:18;;;;;;;73.07;32.83;;;1.50;99.90;;;;;;5006097;28;20229;-76
2023/03/03 00:21:47;;;;;;;64.03;29.07;;;1.50;99.90;;;;;;4967551;28;20284;-76
2023/03/03 00:24:16;;;;;;;67.03;29.60;;;1.50;99.90;;;;;;4980088;28;20202;-76
2023/03/03 00:27:30;;;;;;;64.77;29.90;;;1.60;99.90;;;;;;4965129;28;20221;-76
2023/03/03 00:29:59;;;;;;;63.47;29.10;;;1.60;99.90;;;;;;4988511;28;20253;-75
2023/03/03 00:32:46;;;;;;;64.23;29.13;;;1.50;99.90;;;;;;4981272;28;20198;-74
2023/03/03 00:35:29;;;;;;;59.53;28.83;;;1.60;99.90;;;;;;4989111;28;20209;-75
2023/03/03 00:37:59;;;;;;;66.47;29.97;;;1.60;99.90;;;;;;4988396;28;20209;-75
2023/03/03 00:40:34;;;;;;;68.47;31.13;;;1.60;99.90;;;;;;4988455;28;20230;-75
2023/03/03 00:43:17;;;;;;;71.53;33.43;;;1.60;99.90;;;;;;4989354;28;20196;-76
2023/03/03 00:45:46;;;;;;;61.67;30.57;;;1.70;99.90;;;;;;4997503;28;20635;-75
2023/03/03 00:48:28;;;;;;;68.17;33.10;;;1.60;99.90;;;;;;4988924;28;20541;-76
2023/03/03 00:50:58;;;;;;;63.50;30.97;;;1.70;99.90;;;;;;4990147;28;20676;-75
2023/03/03 00:53:28;;;;;;;69.53;30.33;;;1.60;99.90;;;;;;4981132;28;20769;-75
2023/03/03 00:55:56;;;;;;;62.37;30.50;;;1.70;99.90;;;;;;4995733;28;20230;-75
2023/03/03 00:58:24;;;;;;;63.60;30.50;;;1.70;99.90;;;;;;4987140;28;20202;-76
2023/03/03 01:00:55;;;;;;;71.27;32.33;;;1.70;99.90;;;;;;4969650;28;20216;-76
2023/03/03 01:03:28;;;;;;;64.87;31.47;;;1.70;99.90;;;;;;4964682;28;20587;-76
2023/03/03 01:05:56;;;;;;;69.03;32.93;;;1.70;99.90;;;;;;4985877;28;20610;-77
2023/03/03 01:08:23;;;;;;;73.90;33.83;;;1.70;99.90;;;;;;4979392;28;20209;-76
2023/03/03 01:10:53;;;;;;;59.13;30.83;;;1.70;99.90;;;;;;4979075;28;20197;-76
2023/03/03 01:13:22;;;;;;;64.87;32.87;;;1.60;99.90;;;;;;4985828;28;20273;-76
2023/03/03 01:15:51;;;;;;;75.27;34.80;;;1.50;99.90;;;;;;4988811;28;20267;-76
2023/03/03 01:18:19;;;;;;;71.53;35.53;;;1.50;99.90;;;;;;4987190;28;20720;-76
2023/03/03 01:20:46;;;;;;;67.53;33.83;;;1.50;99.90;;;;;;4987799;28;20822;-76
2023/03/03 01:23:13;;;;;;;73.53;36.07;;;1.50;99.90;;;;;;4982399;28;20205;-76
2023/03/03 01:25:40;;;;;;;75.70;37.00;;;1.50;99.90;;;;;;4988245;28;20244;-76
2023/03/03 01:28:07;;;;;;;70.17;34.63;;;1.50;99.90;;;;;;4988762;28;20221;-76
2023/03/03 01:30:35;;;;;;;72.23;35.90;;;1.40;99.90;;;;;;5003726;28;20288;-76
2023/03/03 01:33:02;;;;;;;74.37;36.07;;;1.50;99.90;;;;;;4988986;28;20697;-76
2023/03/03 01:35:29;;;;;;;58.93;31.20;;;1.50;99.90;;;;;;4964521;28;20704;-76
2023/03/03 01:37:57;;;;;;;58.90;31.23;;;1.50;99.90;;;;;;4980890;28;20194;-76
2023/03/03 01:40:27;;;;;;;61.37;32.60;;;1.60;99.90;;;;;;4986839;28;20193;-76
2023/03/03 01:42:55;;;;;;;58.67;31.83;;;1.50;99.90;;;;;;5002294;28;20210;-75
2023/03/03 01:45:29;;;;;;;59.47;32.87;;;1.60;99.90;;;;;;4985138;28;20248;-76
2023/03/03 01:47:56;;;;;;;61.07;32.50;;;1.60;99.90;;;;;;4962840;28;20205;-76
2023/03/03 01:50:53;;;;;;;66.13;32.90;;;1.70;99.90;;;;;;4991558;28;21996;-76
2023/03/03 01:53:27;;;;;;;67.07;32.63;;;1.70;99.90;;;;;;4986317;28;20265;-76
2023/03/03 01:55:54;;;;;;;68.80;32.97;;;1.70;99.90;;;;;;4986282;28;20222;-76
2023/03/03 01:58:32;;;;;;;77.33;34.07;;;1.70;99.90;;;;;;4993391;28;20279;-76
2023/03/03 02:01:00;;;;;;;67.07;33.80;;;1.70;99.90;;;;;;4997201;23;20252;-59
2023/03/03 02:03:28;;;;;;;76.77;36.53;;;1.70;99.90;;;;;;4958503;28;20348;-58
2023/03/03 02:06:00;;;;;;;73.40;35.33;;;1.60;99.90;;;;;;4959358;28;20214;-58
2023/03/03 02:08:47;;;;;;;70.07;33.97;;;1.60;99.90;;;;;;4975638;28;20273;-59
2023/03/03 02:11:15;;;;;;;76.90;35.87;;;1.50;99.90;;;;;;4976380;28;20205;-59
2023/03/03 02:13:42;;;;;;;81.77;36.47;;;1.50;99.90;;;;;;4979082;28;20213;-59
2023/03/03 02:16:09;;;;;;;72.60;36.23;;;1.50;99.90;;;;;;4963832;28;20292;-59
2023/03/03 02:18:37;;;;;;;73.37;33.93;;;1.60;99.90;;;;;;4978781;28;20198;-58
2023/03/03 02:21:09;;;;;;;66.67;32.93;;;1.50;99.90;;;;;;4981373;28;20676;-58
2023/03/03 02:23:48;;;;;;;58.83;29.10;;;1.60;99.90;;;;;;4979038;28;20198;-58
2023/03/03 02:26:22;;;;;;;52.27;28.53;;;1.50;99.90;;;;;;4963967;28;20272;-58
2023/03/03 02:28:55;;;;;;;52.03;26.87;;;1.60;99.90;;;;;;4947099;28;20259;-60
2023/03/03 02:31:25;;;;;;;56.27;27.60;;;1.60;99.90;;;;;;4982959;28;20252;-59
2023/03/03 02:33:54;;;;;;;49.23;25.97;;;1.60;99.90;;;;;;4962812;28;20252;-58
2023/03/03 02:36:24;;;;;;;44.53;23.97;;;1.50;99.90;;;;;;4979627;28;20600;-58
2023/03/03 02:38:58;;;;;;;42.27;23.53;;;1.50;99.90;;;;;;4947678;28;20261;-59
2023/03/03 02:41:29;;;;;;;47.90;24.37;;;1.50;99.90;;;;;;4981449;28;20230;-59
2023/03/03 02:44:00;;;;;;;39.50;23.30;;;1.50;99.90;;;;;;4980158;28;20198;-60
2023/03/03 02:46:31;;;;;;;42.17;24.97;;;1.50;99.90;;;;;;4948745;28;20573;-59
2023/03/03 02:48:59;;;;;;;40.93;21.20;;;1.50;99.90;;;;;;4980598;28;20204;-59
2023/03/03 02:51:27;;;;;;;37.23;20.80;;;1.60;99.90;;;;;;4963374;28;20213;-60
2023/03/03 02:53:56;;;;;;;42.73;22.10;;;1.60;99.90;;;;;;4980685;28;20618;-58
2023/03/03 02:56:26;;;;;;;39.10;21.27;;;1.60;99.90;;;;;;4947818;28;20329;-59
2023/03/03 02:58:53;;;;;;;39.43;22.23;;;1.60;99.90;;;;;;4980684;28;20691;-58
2023/03/03 03:01:21;;;;;;;42.30;22.07;;;1.60;99.90;;;;;;4979680;28;20311;-58
2023/03/03 03:03:49;;;;;;;50.73;24.47;;;1.60;99.90;;;;;;4980902;28;20194;-59
2023/03/03 03:06:19;;;;;;;48.20;24.10;;;1.70;99.90;;;;;;4981730;28;20245;-59
2023/03/03 03:08:47;;;;;;;47.53;23.37;;;1.70;99.90;;;;;;4979957;28;20213;-59
2023/03/03 03:11:14;;;;;;;58.50;24.90;;;1.70;99.90;;;;;;4980817;28;20225;-60
2023/03/03 03:13:41;;;;;;;45.70;23.13;;;1.70;99.80;;;;;;4979238;28;20205;-59
2023/03/03 03:16:08;;;;;;;49.43;23.70;;;1.70;95.90;;;;;;4979424;28;20314;-58
2023/03/03 03:18:35;;;;;;;56.10;26.17;;;1.60;98.90;;;;;;4980928;28;20293;-59
2023/03/03 03:21:11;;;;;;;50.43;24.63;;;1.60;99.90;;;;;;4971126;28;20218;-62
2023/03/03 03:23:39;;;;;;;52.60;25.47;;;1.70;99.90;;;;;;4962438;28;20256;-59
2023/03/03 03:26:07;;;;;;;55.20;25.50;;;1.60;98.20;;;;;;4979030;28;20205;-60
2023/03/03 03:28:34;;;;;;;53.00;24.93;;;1.60;93.80;;;;;;4978710;28;20252;-61
2023/03/03 03:31:03;;;;;;;55.20;25.77;;;1.60;93.60;;;;;;4979990;28;20241;-60
2023/03/03 03:33:32;;;;;;;57.67;26.07;;;1.50;99.90;;;;;;4961203;28;20214;-62
2023/03/03 03:36:00;;;;;;;60.63;28.53;;;1.40;99.90;;;;;;4970559;28;20222;-61
2023/03/03 03:38:28;;;;;;;60.73;26.80;;;1.50;99.90;;;;;;4980308;28;20536;-60
2023/03/03 03:40:55;;;;;;;55.63;25.83;;;1.40;99.90;;;;;;4978487;28;20209;-67
2023/03/03 03:43:22;;;;;;;50.47;24.30;;;1.50;99.90;;;;;;4979472;28;20605;-67
2023/03/03 03:45:49;;;;;;;46.57;22.60;;;1.50;99.90;;;;;;4961121;28;20205;-67
2023/03/03 03:48:18;;;;;;;42.27;20.67;;;1.60;99.90;;;;;;4978973;28;20202;-65
2023/03/03 03:50:48;;;;;;;40.10;22.13;;;1.60;99.90;;;;;;4979177;28;20205;-67
2023/03/03 03:53:16;;;;;;;40.30;20.83;;;1.60;99.90;;;;;;4961601;28;20296;-65
2023/03/03 03:55:45;;;;;;;39.23;20.20;;;1.60;99.90;;;;;;4962776;28;20202;-67
2023/03/03 03:58:15;;;;;;;32.10;18.80;;;1.60;94.40;;;;;;4963407;28;20568;-66
2023/03/03 04:00:47;;;;;;;35.90;19.07;;;1.50;94.30;;;;;;4978600;28;20733;-67
2023/03/03 04:03:16;;;;;;;31.07;17.47;;;1.50;72.80;;;;;;4978797;28;20245;-68
2023/03/03 04:05:45;;;;;;;33.37;19.27;;;1.50;73.00;;;;;;4980282;28;20206;-67
2023/03/03 04:08:12;;;;;;;34.53;19.93;;;1.60;79.10;;;;;;4970129;28;20224;-68
2023/03/03 04:10:41;;;;;;;34.23;18.33;;;1.50;93.00;;;;;;4977698;28;20221;-66
2023/03/03 04:13:10;;;;;;;37.87;20.13;;;1.50;86.50;;;;;;4969756;28;20218;-67
2023/03/03 04:15:38;;;;;;;32.37;19.20;;;1.50;98.50;;;;;;4980567;28;20198;-67
2023/03/03 04:18:05;;;;;;;34.87;20.27;;;1.60;95.60;;;;;;4962633;28;20700;-68
2023/03/03 04:20:32;;;;;;;39.27;20.57;;;1.60;96.20;;;;;;4977219;28;20205;-68
2023/03/03 04:23:00;;;;;;;34.73;20.27;;;1.60;85.30;;;;;;4978935;28;20275;-67
2023/03/03 04:25:29;;;;;;;37.87;21.37;;;1.60;92.30;;;;;;4970414;28;20667;-67
2023/03/03 04:27:56;;;;;;;39.00;21.00;;;1.60;82.90;;;;;;4979915;28;20685;-67
2023/03/03 04:30:25;;;;;;;34.10;19.37;;;1.60;83.30;;;;;;4978055;28;20244;-64
2023/03/03 04:32:55;;;;;;;37.97;21.37;;;1.60;76.30;;;;;;4978274;28;20683;-66
2023/03/03 04:35:24;;;;;;;38.57;21.73;;;1.60;85.40;;;;;;4976769;28;20225;-65
2023/03/03 04:37:52;;;;;;;40.27;21.20;;;1.50;86.20;;;;;;4961571;28;20241;-67
2023/03/03 04:40:20;;;;;;;39.03;21.63;;;1.50;96.10;;;;;;4970126;28;20216;-66
2023/03/03 04:42:49;;;;;;;40.97;22.17;;;1.40;99.90;;;;;;4977633;28;20207;-67
2023/03/03 04:45:16;;;;;;;39.87;21.97;;;1.40;99.90;;;;;;4977212;28;20238;-64
2023/03/03 04:47:44;;;;;;;41.93;21.77;;;1.40;99.90;;;;;;4977167;28;20220;-67
2023/03/03 04:50:12;;;;;;;41.97;22.97;;;1.40;99.90;;;;;;4969109;28;20217;-66
2023/03/03 04:52:40;;;;;;;41.20;20.63;;;1.40;99.90;;;;;;4961726;28;20226;-67
2023/03/03 04:55:08;;;;;;;42.77;22.50;;;1.40;99.90;;;;;;4977784;28;20201;-64
2023/03/03 04:57:37;;;;;;;46.37;23.60;;;1.40;99.60;;;;;;4961887;28;20221;-66
2023/03/03 05:00:05;;;;;;;49.57;25.40;;;1.40;99.90;;;;;;4976765;28;20241;-65
2023/03/03 05:02:32;;;;;;;48.10;24.53;;;1.40;99.90;;;;;;4960154;28;20238;-66
2023/03/03 05:05:00;;;;;;;50.50;25.20;;;1.50;95.50;;;;;;4976441;28;20202;-67
2023/03/03 05:07:27;;;;;;;50.50;25.17;;;1.50;75.70;;;;;;4978943;28;20256;-65
2023/03/03 05:09:54;;;;;;;49.53;25.20;;;1.50;67.50;;;;;;4979580;28;20735;-67
2023/03/03 05:12:21;;;;;;;48.90;23.67;;;1.50;56.20;;;;;;4980071;28;20561;-67
2023/03/03 05:14:48;;;;;;;48.43;24.63;;;1.60;54.60;;;;;;4979183;28;20950;-66
2023/03/03 05:17:15;;;;;;;50.83;24.53;;;1.60;43.90;;;;;;4979091;28;20221;-67
2023/03/03 05:19:42;;;;;;;53.00;26.43;;;1.60;28.90;;;;;;4978356;28;20705;-67
2023/03/03 05:22:09;;;;;;;57.07;27.37;;;1.50;27.60;;;;;;4978816;28;20193;-67
2023/03/03 05:24:36;;;;;;;54.13;26.77;;;1.50;21.30;;;;;;4978067;28;20194;-67
2023/03/03 05:27:03;;;;;;;51.30;25.40;;;1.50;27.60;;;;;;4977601;28;20526;-68
2023/03/03 05:29:30;;;;;;;56.30;27.57;;;1.50;37.50;;;;;;4978455;28;20260;-68
2023/03/03 05:31:57;;;;;;;63.23;29.93;;;1.40;23.90;;;;;;4978154;28;20365;-67
2023/03/03 05:34:24;;;;;;;61.03;28.77;;;1.40;29.50;;;;;;4960225;28;20206;-64
2023/03/03 05:36:51;;;;;;;68.00;30.00;;;1.30;29.10;;;;;;4960393;28;20260;-67
2023/03/03 05:39:18;;;;;;;62.87;27.70;;;1.40;39.70;;;;;;4978738;28;20190;-67
2023/03/03 05:41:45;;;;;;;56.57;27.60;;;1.40;42.30;;;;;;4978043;28;20204;-67
2023/03/03 05:44:12;;;;;;;50.37;25.33;;;1.50;35.40;;;;;;4977562;28;20280;-68
2023/03/03 05:46:39;;;;;;;53.10;25.83;;;1.50;32.80;;;;;;4960261;28;20193;-67
2023/03/03 05:49:06;;;;;;;65.83;29.90;;;1.50;29.60;;;;;;4977386;28;20680;-68
2023/03/03 05:51:33;;;;;;;55.67;28.10;;;1.50;26.20;;;;;;4977065;28;20672;-68
2023/03/03 05:54:00;;;;;;;61.07;28.73;;;1.50;21.90;;;;;;4961366;28;20213;-67
2023/03/03 05:56:27;;;;;;;54.40;27.40;;;1.60;12.30;;;;;;4977540;28;20205;-67
2023/03/03 05:58:54;;;;;;;54.33;26.33;;;1.60;3.20;;;;;;4977177;28;20216;-68
2023/03/03 06:01:21;;;;;;;54.73;26.77;;;1.60;1.50;;;;;;4976766;28;20245;-67
2023/03/03 06:03:48;;;;;;;49.97;25.83;;;1.60;1.00;;;;;;4976956;28;20286;-67
2023/03/03 06:06:18;;;;;;;51.13;25.80;;;1.60;1.00;;;;;;4978388;28;20193;-68
2023/03/03 06:08:45;;;;;;;49.07;24.70;;;1.60;1.00;;;;;;4968797;28;20202;-67
2023/03/03 06:11:12;;;;;;;52.53;25.80;;;1.60;1.00;;;;;;4969391;28;20197;-67
2023/03/03 06:13:41;;;;;;;54.87;27.03;;;1.60;1.00;;;;;;4976190;28;20229;-67
2023/03/03 06:16:08;;;;;;;51.90;24.83;;;1.60;1.00;;;;;;4979254;28;20602;-67
2023/03/03 06:18:36;;;;;;;43.37;22.43;;;1.60;1.00;;;;;;4975332;28;20296;-67
2023/03/03 06:21:02;;;;;;;48.70;23.87;;;1.60;1.00;;;;;;4978162;28;20249;-65
2023/03/03 06:23:29;;;;;;;49.73;23.30;;;1.60;1.00;;;;;;4977493;28;20534;-64
2023/03/03 06:25:57;;;;;;;49.50;22.80;;;1.60;1.00;;;;;;4976762;28;20669;-67
2023/03/03 06:28:24;;;;;;;47.87;23.13;;;1.60;1.00;;;;;;4977407;28;20206;-66
2023/03/03 06:30:55;;;;;;;48.70;24.10;;;1.60;1.00;;;;;;4977111;28;20685;-66
2023/03/03 06:33:22;;;;;;;50.80;23.90;;;1.60;1.00;;;;;;4978612;28;20206;-68
2023/03/03 06:35:50;;;;;;;55.73;25.93;;;1.50;1.00;;;;;;4976251;28;20610;-65
2023/03/03 06:38:18;;;;;;;55.60;26.23;;;1.50;1.00;;;;;;4978885;28;20214;-67
2023/03/03 06:40:46;;;;;;;60.53;26.77;;;1.50;1.00;;;;;;4977995;28;20226;-68
2023/03/03 06:43:13;;;;;;;57.03;25.10;;;1.50;1.00;;;;;;4976230;28;20205;-65
2023/03/03 06:45:40;;;;;;;52.23;24.87;;;1.50;1.00;;;;;;4975882;28;20678;-67
2023/03/03 06:48:07;;;;;;;55.47;24.33;;;1.50;1.00;;;;;;4976880;28;20203;-66
2023/03/03 06:50:35;;;;;;;59.43;26.60;;;1.40;1.00;;;;;;4976585;28;20289;-64
2023/03/03 06:53:14;;;;;;;50.67;23.67;;;1.50;1.00;;;;;;4976391;28;20202;-66
2023/03/03 06:55:43;;;;;;;51.70;24.30;;;1.60;1.00;;;;;;4961832;28;20198;-66
2023/03/03 06:58:13;;;;;;;54.17;24.13;;;1.60;1.00;;;;;;4979322;28;20245;-68
2023/03/03 07:00:49;;;;;;;52.53;24.63;;;1.60;1.00;;;;;;4982515;28;20289;-66
2023/03/03 07:03:20;;;;;;;53.07;22.43;;;1.60;1.00;;;;;;4963102;28;20232;-63
2023/03/03 07:05:48;;;;;;;54.57;24.40;;;1.50;1.00;;;;;;4978953;28;20194;-68
2023/03/03 07:08:20;;;;;;;46.13;23.07;;;1.60;1.00;;;;;;4979168;28;20238;-68
2023/03/03 07:10:48;;;;;;;58.33;25.60;;;1.60;1.00;;;;;;4981723;28;20202;-66
2023/03/03 07:13:25;;;;;;;55.87;25.97;;;1.60;1.00;;;;;;4981867;28;20635;-67
2023/03/03 07:15:54;;;;;;;54.17;23.67;;;1.50;1.00;;;;;;4980083;28;20209;-65
2023/03/03 07:18:35;;;;;;;56.37;24.27;;;1.50;1.00;;;;;;4980493;28;20796;-67
2023/03/03 07:21:31;;;;;;;57.60;23.87;;;1.50;1.00;;;;;;4979509;28;20226;-65
2023/03/03 07:24:00;;;;;;;55.97;24.87;;;1.40;1.00;;;;;;4970670;28;20225;-68
2023/03/03 07:26:31;;;;;;;56.00;24.57;;;1.40;1.00;;;;;;4979469;28;20210;-67
2023/03/03 07:29:27;;;;;;;55.73;24.77;;;1.40;1.00;;;;;;4980880;28;20226;-68
2023/03/03 07:31:56;;;;;;;53.70;23.83;;;1.40;1.00;;;;;;4980958;28;20212;-65
2023/03/03 07:34:43;;;;;;;64.23;23.77;;;1.50;6.80;;;;;;4978684;28;20205;-65
2023/03/03 07:37:37;;;;;;;54.43;22.27;;;1.60;1.00;;;;;;4980453;28;20560;-66
2023/03/03 07:40:31;;;;;;;51.23;21.63;;;1.60;1.00;;;;;;4980413;28;20248;-65
2023/03/03 07:42:58;;;;;;;51.13;21.03;;;1.60;1.00;;;;;;4961855;28;20696;-65
2023/03/03 07:45:36;;;;;;;51.33;21.60;;;1.60;1.60;;;;;;4962223;28;20633;-63
2023/03/03 07:48:17;;;;;;;50.27;21.53;;;1.60;7.50;;;;;;4947172;28;20197;-65
2023/03/03 07:50:44;;;;;;;53.87;23.63;;;1.80;1.00;;;;;;4979296;28;20248;-64
2023/03/03 07:53:28;;;;;;;52.00;21.77;;;1.80;1.00;;;;;;4962830;28;20226;-66
2023/03/03 07:55:55;;;;;;;49.20;21.67;;;1.90;1.00;;;;;;4979984;28;20285;-64
2023/03/03 07:58:34;;;;;;;54.27;22.43;;;1.80;1.00;;;;;;4979271;28;20273;-67
2023/03/03 08:01:30;;;;;;;53.90;21.20;;;1.90;1.00;;;;;;4962332;28;20308;-65
2023/03/03 08:03:57;;;;;;;47.60;20.80;;;1.90;1.00;;;;;;4976009;28;20678;-67
2023/03/03 08:06:36;;;;;;;53.97;23.03;;;2.00;1.00;;;;;;4978851;28;20201;-63
2023/03/03 08:09:09;;;;;;;55.10;22.93;;;2.10;1.00;;;;;;4978471;28;20206;-64
2023/03/03 08:11:52;;;;;;;49.33;22.33;;;2.10;1.00;;;;;;4979711;28;20216;-64
2023/03/03 08:14:28;;;;;;;50.77;21.63;;;2.10;1.00;;;;;;4980370;28;20288;-66
2023/03/03 08:16:57;;;;;;;47.53;21.03;;;2.10;1.00;;;;;;4979693;28;20755;-64
2023/03/03 08:19:30;;;;;;;48.17;19.93;;;2.20;1.00;;;;;;4980429;28;20268;-67
2023/03/03 08:22:14;;;;;;;58.33;20.93;;;2.10;1.00;;;;;;4980639;28;20198;-64
2023/03/03 08:24:41;;;;;;;49.53;20.97;;;2.10;1.00;;;;;;4981034;28;20225;-67
2023/03/03 08:27:08;;;;;;;52.27;22.40;;;2.10;1.00;;;;;;4979338;28;20225;-65
2023/03/03 08:29:35;;;;;;;49.43;20.63;;;2.00;1.00;;;;;;4962961;28;20234;-64
2023/03/03 08:32:02;;;;;;;53.33;21.90;;;2.10;1.00;;;;;;4980146;28;20616;-65
2023/03/03 08:34:29;;;;;;;49.73;21.50;;;2.20;1.00;;;;;;4977917;28;20201;-66
2023/03/03 08:36:57;;;;;;;49.80;21.20;;;2.30;1.00;;;;;;4979788;28;20206;-65
2023/03/03 08:39:24;;;;;;;59.30;23.10;;;2.40;1.00;;;;;;4969429;28;20725;-65
2023/03/03 08:41:51;;;;;;;57.70;24.27;;;2.30;1.00;;;;;;4980176;28;20249;-65
2023/03/03 08:44:19;;;;;;;58.37;22.47;;;2.30;1.00;;;;;;4969723;28;20229;-64
2023/03/03 08:46:46;;;;;;;48.73;19.80;;;2.30;1.00;;;;;;4977688;28;20260;-66
2023/03/03 08:49:13;;;;;;;50.77;21.30;;;2.40;1.00;;;;;;4960881;28;20661;-67
2023/03/03 08:51:40;;;;;;;49.40;21.10;;;2.50;1.00;;;;;;4979719;28;20221;-65
2023/03/03 08:54:08;;;;;;;47.20;19.43;;;2.40;1.00;;;;;;4980765;28;20832;-66
2023/03/03 08:56:35;;;;;;;47.33;19.30;;;2.40;1.00;;;;;;4977251;28;20200;-67
2023/03/03 08:59:02;;;;;;;55.43;21.47;;;2.50;1.00;;;;;;4978860;28;20856;-67
2023/03/03 09:01:31;;;;;;;54.20;22.37;;;2.50;1.00;;;;;;4977948;28;20523;-67
2023/03/03 09:03:58;;;;;;;62.10;23.03;;;2.40;1.00;;;;;;4968726;28;20233;-68
2023/03/03 09:06:26;;;;;;;55.07;20.43;;;2.50;1.00;;;;;;4978649;28;20197;-66
2023/03/03 09:08:53;;;;;;;56.20;21.53;;;2.50;1.00;;;;;;4970061;28;20285;-67
2023/03/03 09:11:26;;;;;;;60.13;21.97;;;2.50;1.00;;;;;;4979729;28;20230;-65
2023/03/03 09:14:03;;;;;;;49.00;20.30;;;2.60;1.00;;;;;;4978282;28;20687;-65
2023/03/03 09:16:36;;;;;;;48.47;19.67;;;2.70;1.00;;;;;;4969511;28;20198;-64
2023/03/03 09:19:35;;;;;;;55.97;20.43;;;2.60;1.00;;;;;;4976775;28;20229;-67
2023/03/03 09:22:26;;;;;;;46.63;18.87;;;2.40;1.00;;;;;;4968339;28;20220;-67
2023/03/03 09:24:57;;;;;;;47.03;19.50;;;2.50;1.00;;;;;;4961886;28;20229;-68
2023/03/03 09:27:29;;;;;;;44.40;19.00;;;2.60;1.00;;;;;;4979114;28;20226;-65
2023/03/03 09:30:01;;;;;;;40.90;17.93;;;2.60;1.00;;;;;;4961291;28;20720;-67
2023/03/03 09:32:41;;;;;;;44.40;19.67;;;2.40;1.00;;;;;;4978481;28;20325;-65
2023/03/03 09:35:30;;;;;;;40.07;18.60;;;2.40;1.00;;;;;;4968438;28;20200;-66
2023/03/03 09:37:57;;;;;;;50.23;17.73;;;2.60;1.00;;;;;;4960814;28;20230;-65
2023/03/03 09:40:41;;;;;;;47.80;19.57;;;2.70;1.00;;;;;;4968611;28;20316;-66
2023/03/03 09:43:14;;;;;;;43.23;18.53;;;2.60;1.00;;;;;;4978301;28;20231;-66
2023/03/03 09:45:49;;;;;;;47.73;19.80;;;2.70;1.00;;;;;;4978061;28;20248;-66
2023/03/03 09:48:38;;;;;;;45.10;18.30;;;2.80;1.00;;;;;;4977071;28;20210;-65
2023/03/03 09:51:30;;;;;;;44.50;18.43;;;3.00;1.00;;;;;;4979087;28;20634;-67
2023/03/03 09:54:04;;;;;;;47.47;20.20;;;3.10;1.00;;;;;;4977396;28;20206;-67
2023/03/03 09:56:36;;;;;;;42.07;18.07;;;3.00;1.00;;;;;;4976822;28;20209;-65
2023/03/03 09:59:21;;;;;;;38.53;18.07;;;3.20;1.00;;;;;;4978858;28;20292;-64
2023/03/03 10:02:23;;;;;;;43.80;18.30;;;3.30;1.00;;;;;;4980023;28;20237;-66
2023/03/03 10:05:11;;;;;;;50.70;20.97;;;3.20;1.00;;;;;;4978203;28;20653;-67
2023/03/03 10:07:48;;;;;;;47.17;19.43;;;3.30;1.00;;;;;;4977047;28;20661;-65
2023/03/03 10:10:30;;;;;;;46.53;19.47;;;3.30;1.00;;;;;;4977566;28;20209;-65
2023/03/03 10:13:14;;;;;;;44.13;20.40;;;3.20;1.00;;;;;;4979344;28;20197;-67
2023/03/03 10:16:12;;;;;;;44.50;17.90;;;3.20;1.00;;;;;;4977132;28;20312;-66
2023/03/03 10:19:00;;;;;;;46.53;18.97;;;3.40;1.00;;;;;;4947597;28;20287;-65
2023/03/03 10:21:36;;;;;;;40.67;17.93;;;3.60;1.00;;;;;;4976672;28;20278;-67
2023/03/03 10:24:19;;;;;;;42.57;19.47;;;3.70;1.00;;;;;;4977377;28;20708;-65
2023/03/03 10:26:50;;;;;;;42.17;18.40;;;3.60;1.00;;;;;;4978656;28;20736;-66
2023/03/03 10:29:58;;;;;;;45.03;18.77;;;3.50;1.00;;;;;;4978434;28;20202;-67
2023/03/03 10:32:52;;;;;;;46.87;19.20;;;3.40;1.00;;;;;;4959904;28;20217;-65
2023/03/03 10:35:34;;;;;;;41.23;17.73;;;3.60;1.00;;;;;;4979927;28;20186;-67
2023/03/03 10:38:22;;;;;;;47.33;20.03;;;3.70;1.00;;;;;;4983045;28;20221;-66
2023/03/03 10:41:12;;;;;;;44.47;19.70;;;3.80;1.00;;;;;;4965018;28;20201;-65
2023/03/03 10:44:18;;;;;;;47.60;20.47;;;3.80;1.00;;;;;;4980341;28;20535;-68
2023/03/03 10:46:55;;;;;;;50.97;20.57;;;3.90;1.00;;;;;;4941023;29;20237;-66
2023/03/03 10:49:27;;;;;;;46.80;19.50;;;4.10;1.00;;;;;;4940452;29;20627;-65
2023/03/03 10:52:22;;;;;;;44.80;20.10;;;4.10;1.00;;;;;;4940728;28;20344;-65
2023/03/03 10:55:09;;;;;;;47.23;20.70;;;4.30;1.00;;;;;;4963484;28;20212;-65
2023/03/03 10:58:01;;;;;;;42.43;20.30;;;4.10;1.00;;;;;;4980237;28;20209;-65
2023/03/03 11:00:34;;;;;;;43.23;19.53;;;4.10;1.00;;;;;;4982236;28;20282;-65
2023/03/03 11:03:35;;;;;;;48.03;18.87;;;4.20;1.00;;;;;;4980226;28;20313;-66
2023/03/03 11:06:11;;;;;;;48.87;20.30;;;4.40;1.00;;;;;;4980826;28;20676;-65
2023/03/03 11:08:52;;;;;;;44.37;18.40;;;4.10;1.00;;;;;;4981280;28;20209;-67
2023/03/03 11:11:47;;;;;;;47.00;20.83;;;4.30;1.00;;;;;;4982083;28;20614;-67
2023/03/03 11:14:36;;;;;;;43.00;20.70;;;4.50;1.00;;;;;;4978825;28;20217;-65
2023/03/03 11:17:10;;;;;;;44.30;19.70;;;4.70;1.00;;;;;;4964993;28;20240;-66
2023/03/03 11:20:01;;;;;;;43.17;19.40;;;4.60;1.00;;;;;;4979172;28;20268;-66
2023/03/03 11:22:58;;;;;;;48.37;21.33;;;4.40;1.00;;;;;;4982265;28;20240;-66
2023/03/03 11:25:45;;;;;;;47.77;21.43;;;4.50;1.00;;;;;;4980273;28;20256;-67
2023/03/03 11:28:12;;;;;;;44.13;20.20;;;4.80;1.00;;;;;;4981495;28;20275;-67
2023/03/03 11:30:53;;;;;;;45.57;20.07;;;4.90;1.00;;;;;;4982495;28;20622;-67
2023/03/03 11:33:45;;;;;;;41.80;19.37;;;4.70;1.00;;;;;;4981480;28;20629;-64
2023/03/03 11:36:17;;;;;;;45.13;20.73;;;4.70;1.00;;;;;;4963638;28;20209;-68
2023/03/03 11:39:00;;;;;;;50.87;23.30;;;5.00;1.00;;;;;;4963816;28;20718;-67
2023/03/03 11:41:57;;;;;;;47.87;22.73;;;5.10;1.00;;;;;;4982777;28;20204;-67
2023/03/03 11:44:36;;;;;;;51.47;24.77;;;4.90;1.00;;;;;;4980413;28;20229;-67
2023/03/03 11:47:21;;;;;;;50.07;22.33;;;5.40;1.00;;;;;;4981251;28;20204;-65
2023/03/03 11:49:51;;;;;;;45.30;21.93;;;5.50;1.00;;;;;;4975937;28;20202;-66
2023/03/03 11:52:27;;;;;;;49.97;23.00;;;5.60;1.00;;;;;;4979628;28;20194;-67
2023/03/03 11:55:16;;;;;;;45.20;22.13;;;6.10;1.00;;;;;;4980187;28;20322;-67
2023/03/03 11:57:52;;;;;;;50.67;22.83;;;6.10;1.00;;;;;;4967166;28;20198;-68
2023/03/03 12:00:44;;;;;;;47.67;22.60;;;6.10;1.00;;;;;;4980218;28;21109;-66
2023/03/03 12:03:18;;;;;;;52.70;24.57;;;5.70;1.00;;;;;;4978373;28;20285;-68
2023/03/03 12:06:07;;;;;;;47.43;21.33;;;5.80;1.00;;;;;;4979147;28;20230;-67
2023/03/03 12:08:58;;;;;;;43.30;20.33;;;5.70;1.00;;;;;;4980952;28;20208;-71
2023/03/03 12:12:01;;;;;;;44.30;21.57;;;5.90;1.00;;;;;;4961513;28;20205;-68
2023/03/03 12:14:31;;;;;;;44.23;21.60;;;6.10;1.00;;;;;;4979147;28;20237;-68
2023/03/03 12:17:10;;;;;;;38.13;18.50;;;6.30;1.00;;;;;;4979631;28;20197;-64
2023/03/03 12:19:58;;;;;;;43.23;20.47;;;6.20;1.00;;;;;;4979627;28;20245;-67
2023/03/03 12:22:29;;;;;;;39.87;18.90;;;6.10;1.00;;;;;;4979341;28;20198;-67
2023/03/03 12:25:25;;;;;;;29.97;16.33;;;6.80;1.00;;;;;;4961998;28;20236;-67
2023/03/03 12:28:16;;;;;;;37.70;17.77;;;6.80;1.00;;;;;;4945732;28;20238;-67
2023/03/03 12:30:55;;;;;;;37.17;18.07;;;7.00;1.00;;;;;;4979420;28;20199;-65
2023/03/03 12:33:42;;;;;;;35.17;18.33;;;7.30;1.00;;;;;;4977653;28;20205;-65
2023/03/03 12:36:20;;;;;;;35.87;18.50;;;7.20;1.00;;;;;;4972226;28;20284;-67
2023/03/03 12:39:10;;;;;;;34.07;17.67;;;7.20;1.00;;;;;;4977506;28;20483;-67
2023/03/03 12:42:00;;;;;;;38.90;19.30;;;7.20;1.00;;;;;;4977871;28;20200;-67
2023/03/03 12:44:43;;;;;;;34.77;17.70;;;7.20;1.00;;;;;;4975538;28;20300;-67
2023/03/03 12:47:36;;;;;;;37.93;17.83;;;7.70;1.00;;;;;;4976372;28;20209;-68
2023/03/03 12:50:09;;;;;;;33.10;17.93;;;7.90;1.00;;;;;;4976289;28;20255;-67
2023/03/03 12:52:56;;;;;;;42.53;23.30;;;8.50;1.00;;;;;;4977595;28;20193;-66
2023/03/03 12:55:50;;;;;;;32.90;17.47;;;8.90;1.00;;;;;;4977869;28;20732;-67
2023/03/03 12:58:29;;;;;;;35.80;18.87;;;8.10;1.00;;;;;;4968917;28;20329;-67
2023/03/03 13:00:56;;;;;;;34.90;17.00;;;8.40;1.00;;;;;;4972164;28;20669;-65
2023/03/03 13:03:41;;;;;;;32.83;16.77;;;8.30;1.00;;;;;;4956727;28;20284;-68
2023/03/03 13:06:21;;;;;;;33.27;17.10;;;8.40;1.00;;;;;;4977354;28;20244;-70
2023/03/03 13:08:57;;;;;;;31.53;16.53;;;8.30;1.00;;;;;;4974993;28;20656;-71
2023/03/03 13:11:49;;;;;;;33.30;17.30;;;8.50;1.00;;;;;;4976917;28;20366;-64
2023/03/03 13:14:25;;;;;;;31.93;16.30;;;8.60;1.00;;;;;;4973952;28;20300;-66
2023/03/03 13:17:16;;;;;;;34.47;16.33;;;8.20;1.00;;;;;;4959517;28;20719;-66
2023/03/03 13:19:53;;;;;;;29.57;16.30;;;8.40;1.00;;;;;;4975351;28;20307;-67